Annapolis Junction, Maryland
Current Conditions -  °F | °C
As of 2:18 AM on Sunday 23 Nov 2014 (Local Time) from KFME Reporting Station
Scattered Clouds Scattered Clouds  
Wind Chill: 36°   Ceiling: Unl
Heat Index: 41°   Visibility: 10mi
Dew Point: 19°   Wind: 7mph
Humidity: 42%   Direction: 220°SW
Pressure: 30.25"   Gusts: NA
Location:  39.13°N, 76.8°W
Report Text: KFME 230718Z AUTO 22006KT 10SM SCT120 05/M07 A3025 RMK AO1
Loading
Personal Weather Stations






























Interactive Weather Map New forecast layout! Learn more

10-Day Weather Forecast

Advertisements
Track Severe Weather on mobile